createdAt,value
2022-11-14T00:00:37.641Z,100574.22
2022-11-14T00:03:12.826Z,100573.41
2022-11-14T00:05:50.101Z,100572.53
2022-11-14T00:08:22.221Z,100570.78
2022-11-14T00:11:04.589Z,100567.31
2022-11-14T00:13:37.798Z,100574.25
2022-11-14T00:16:11.676Z,100581.25
2022-11-14T00:18:39.768Z,100572.56
2022-11-14T00:21:10.940Z,100569.06
2022-11-14T00:23:39.097Z,100558.63
2022-11-14T00:26:08.269Z,100561.25
2022-11-14T00:28:35.371Z,100556.00
2022-11-14T00:31:12.239Z,100556.88
2022-11-14T00:33:41.850Z,100548.16
2022-11-14T00:36:09.209Z,100549.91
2022-11-14T00:38:54.121Z,100548.16
2022-11-14T00:41:23.495Z,100556.00
2022-11-14T00:43:50.602Z,100556.91
2022-11-14T00:46:24.627Z,100556.00
2022-11-14T00:48:51.680Z,100552.53
2022-11-14T00:51:18.733Z,100555.16
2022-11-14T00:53:49.872Z,100555.13
2022-11-14T00:56:21.025Z,100550.81
2022-11-14T00:58:52.125Z,100556.03
2022-11-14T01:01:23.356Z,100548.16
2022-11-14T01:03:57.520Z,100542.94
2022-11-14T01:06:24.749Z,100546.44
2022-11-14T01:08:52.893Z,100539.44
2022-11-14T01:11:22.521Z,100546.44
2022-11-14T01:13:56.475Z,100547.31
2022-11-14T01:16:24.537Z,100535.09
2022-11-14T01:18:58.628Z,100539.47
2022-11-14T01:21:26.740Z,100540.34
2022-11-14T01:23:53.763Z,100517.66
2022-11-14T01:26:28.029Z,100521.13
2022-11-14T01:28:58.154Z,100523.75
2022-11-14T01:31:39.612Z,100513.31
2022-11-14T01:34:10.051Z,100501.97
2022-11-14T01:36:37.058Z,100506.34
2022-11-14T01:39:04.298Z,100499.34
2022-11-14T01:41:36.361Z,100497.59
2022-11-14T01:44:03.483Z,100506.31
2022-11-14T01:46:39.131Z,100505.44
2022-11-14T01:49:15.348Z,100501.09
2022-11-14T01:52:04.019Z,100495.88
2022-11-14T01:54:34.878Z,100481.94
2022-11-14T01:57:04.148Z,100486.28
2022-11-14T01:59:40.353Z,100473.19
2022-11-14T02:02:17.772Z,100482.78
2022-11-14T02:04:52.284Z,100483.66
2022-11-14T02:07:20.096Z,100480.16
2022-11-14T02:09:49.159Z,100475.81
2022-11-14T02:12:24.537Z,100479.28
2022-11-14T02:14:59.787Z,100481.91
2022-11-14T02:17:32.905Z,100481.91
2022-11-14T02:20:32.870Z,100474.06
2022-11-14T02:22:59.903Z,100471.47
2022-11-14T02:25:27.502Z,100472.31
2022-11-14T02:27:57.897Z,100466.22
2022-11-14T02:30:27.907Z,100473.22
2022-11-14T02:33:11.926Z,100467.94
2022-11-14T02:35:51.369Z,100459.22
2022-11-14T02:38:33.682Z,100457.50
2022-11-14T02:41:07.860Z,100454.00
2022-11-14T02:43:46.181Z,100455.72
2022-11-14T02:46:20.396Z,100450.50
2022-11-14T02:48:47.376Z,100448.78
2022-11-14T02:51:27.630Z,100454.88
2022-11-14T02:54:09.763Z,100447.03
2022-11-14T02:56:38.801Z,100443.56
2022-11-14T02:59:06.869Z,100440.94
2022-11-14T03:01:41.106Z,100438.31
2022-11-14T03:04:09.090Z,100443.56
2022-11-14T03:06:36.221Z,100439.19
2022-11-14T03:09:11.224Z,100447.03
2022-11-14T03:11:39.313Z,100452.28
2022-11-14T03:14:06.360Z,100439.19
2022-11-14T03:16:33.332Z,100454.00
2022-11-14T03:19:07.388Z,100443.56
2022-11-14T03:21:34.468Z,100436.56
2022-11-14T03:24:02.559Z,100442.69
2022-11-14T03:26:31.648Z,100437.44
2022-11-14T03:28:58.669Z,100434.81
2022-11-14T03:31:28.684Z,100434.84
2022-11-14T03:34:11.121Z,100432.22
2022-11-14T03:36:38.665Z,100438.31
2022-11-14T03:39:06.215Z,100444.44
2022-11-14T03:41:35.311Z,100431.31
2022-11-14T03:44:05.435Z,100443.56
2022-11-14T03:46:38.629Z,100447.03
2022-11-14T03:49:05.714Z,100442.69
2022-11-14T03:51:52.055Z,100447.91
2022-11-14T03:54:22.090Z,100447.03
2022-11-14T03:56:49.149Z,100443.53
2022-11-14T03:59:32.484Z,100436.56
2022-11-14T04:02:01.577Z,100426.09
2022-11-14T04:04:28.686Z,100424.34
2022-11-14T04:06:55.801Z,100428.72
2022-11-14T04:09:27.844Z,100418.25
2022-11-14T04:11:55.944Z,100407.78
2022-11-14T04:14:22.945Z,100413.88
2022-11-14T04:16:53.040Z,100412.13
2022-11-14T04:19:21.100Z,100402.53
2022-11-14T04:21:49.133Z,100408.66
2022-11-14T04:24:17.182Z,100413.00
2022-11-14T04:26:47.278Z,100415.63
2022-11-14T04:29:25.705Z,100415.63
2022-11-14T04:31:53.767Z,100420.88
2022-11-14T04:34:20.860Z,100410.41
2022-11-14T04:36:47.927Z,100405.19
2022-11-14T04:39:14.851Z,100406.91
2022-11-14T04:41:44.119Z,100402.53
2022-11-14T04:44:12.188Z,100401.66
2022-11-14T04:46:40.359Z,100401.66
2022-11-14T04:49:07.431Z,100390.31
2022-11-14T04:51:37.487Z,100398.19
2022-11-14T04:54:11.535Z,100399.94
2022-11-14T04:56:43.623Z,100389.47
2022-11-14T04:59:12.507Z,100389.47
2022-11-14T05:01:51.063Z,100385.09
2022-11-14T05:04:20.046Z,100396.44
2022-11-14T05:06:48.083Z,100393.81
2022-11-14T05:09:21.000Z,100397.28
2022-11-14T05:11:48.129Z,100392.94
2022-11-14T05:14:15.270Z,100395.56
2022-11-14T05:16:45.360Z,100386.84
2022-11-14T05:19:13.440Z,100383.38
2022-11-14T05:21:44.585Z,100387.69
2022-11-14T05:24:13.634Z,100386.84
2022-11-14T05:26:48.772Z,100376.41
2022-11-14T05:29:20.047Z,100377.25
2022-11-14T05:31:48.113Z,100395.56
2022-11-14T05:34:15.094Z,100392.09
2022-11-14T05:36:43.158Z,100399.06
2022-11-14T05:39:11.262Z,100414.72
2022-11-14T05:42:11.780Z,100406.88
2022-11-14T05:44:39.846Z,100407.78
2022-11-14T05:47:08.916Z,100402.50
2022-11-14T05:49:36.052Z,100408.59
2022-11-14T05:52:05.307Z,100410.38
2022-11-14T05:54:49.642Z,100398.13
2022-11-14T05:57:17.842Z,100396.41
2022-11-14T05:59:44.828Z,100406.88
2022-11-14T06:02:12.893Z,100402.47
2022-11-14T06:04:43.031Z,100401.59
2022-11-14T06:07:14.137Z,100402.47
2022-11-14T06:09:46.630Z,100404.19
2022-11-14T06:12:17.741Z,100396.38
2022-11-14T06:15:01.446Z,100399.88
2022-11-14T06:17:28.441Z,100401.63
2022-11-14T06:19:55.557Z,100403.38
2022-11-14T06:22:23.612Z,100399.00
2022-11-14T06:24:52.695Z,100417.34
2022-11-14T06:27:37.032Z,100417.34
2022-11-14T06:30:12.857Z,100411.19
2022-11-14T06:32:39.939Z,100425.16
2022-11-14T06:35:11.113Z,100412.94
2022-11-14T06:37:44.429Z,100419.94
2022-11-14T06:40:17.592Z,100416.44
2022-11-14T06:42:56.047Z,100423.44
2022-11-14T06:45:23.104Z,100422.53
2022-11-14T06:47:50.713Z,100421.69
2022-11-14T06:50:19.817Z,100418.19
2022-11-14T06:52:48.922Z,100424.31
2022-11-14T06:55:18.635Z,100415.56
2022-11-14T06:57:56.402Z,100414.69
2022-11-14T07:00:24.580Z,100417.31
2022-11-14T07:03:17.405Z,100420.81
2022-11-14T07:05:44.647Z,100407.72
2022-11-14T07:08:21.171Z,100417.28
2022-11-14T07:10:49.475Z,100410.34
2022-11-14T07:13:22.642Z,100412.06
2022-11-14T07:15:54.044Z,100412.06
2022-11-14T07:18:26.347Z,100400.69
2022-11-14T07:21:15.337Z,100405.03
2022-11-14T07:23:43.018Z,100406.78
2022-11-14T07:26:11.764Z,100409.41
2022-11-14T07:28:51.794Z,100417.19
2022-11-14T07:31:25.048Z,100414.59
2022-11-14T07:33:53.185Z,100410.19
2022-11-14T07:36:29.064Z,100410.19
2022-11-14T07:39:07.344Z,100398.81
2022-11-14T07:41:41.386Z,100398.81
2022-11-14T07:44:08.564Z,100392.75
2022-11-14T07:46:37.832Z,100390.94
2022-11-14T07:49:04.916Z,100391.84
2022-11-14T07:51:34.089Z,100383.13
2022-11-14T07:54:03.165Z,100392.75
2022-11-14T07:56:30.260Z,100377.84
2022-11-14T07:58:58.476Z,100388.28
2022-11-14T08:01:25.584Z,100382.16
2022-11-14T08:03:52.675Z,100380.31
2022-11-14T08:06:26.330Z,100388.19
2022-11-14T08:08:53.337Z,100388.19
2022-11-14T08:11:41.361Z,100383.78
2022-11-14T08:14:16.416Z,100382.94
2022-11-14T08:16:44.421Z,100389.88
2022-11-14T08:19:13.552Z,100381.91
2022-11-14T08:21:43.108Z,100385.44
2022-11-14T08:24:10.229Z,100383.63
2022-11-14T08:26:47.407Z,100384.47
2022-11-14T08:29:27.689Z,100386.19
2022-11-14T08:31:59.953Z,100383.53
2022-11-14T08:34:29.516Z,100382.53
2022-11-14T08:36:58.688Z,100382.50
2022-11-14T08:39:26.716Z,100376.31
2022-11-14T08:41:53.782Z,100382.31
2022-11-14T08:44:22.975Z,100381.44
2022-11-14T08:46:51.953Z,100370.16
2022-11-14T08:49:20.082Z,100373.53
2022-11-14T08:51:52.845Z,100372.66
2022-11-14T08:54:28.129Z,100370.81
2022-11-14T08:56:56.227Z,100362.16
2022-11-14T08:59:28.348Z,100365.59
2022-11-14T09:02:01.590Z,100362.09
2022-11-14T09:04:38.244Z,100358.56
2022-11-14T09:07:12.514Z,100348.88
2022-11-14T09:09:41.726Z,100363.69
2022-11-14T09:12:09.765Z,100349.66
2022-11-14T09:14:36.873Z,100350.56
2022-11-14T09:17:06.046Z,100352.06
2022-11-14T09:19:36.553Z,100344.28
2022-11-14T09:22:07.613Z,100346.16
2022-11-14T09:24:48.021Z,100340.88
2022-11-14T09:27:21.060Z,100328.47
2022-11-14T09:29:48.000Z,100335.28
2022-11-14T09:32:27.305Z,100329.66
2022-11-14T09:35:01.220Z,100327.63
2022-11-14T09:37:30.387Z,100321.53
2022-11-14T09:39:57.569Z,100313.41
2022-11-14T09:43:01.906Z,100309.22
2022-11-14T09:45:33.849Z,100305.66
2022-11-14T09:48:26.171Z,100310.69
2022-11-14T09:51:06.259Z,100309.44
2022-11-14T09:53:54.228Z,100300.78
2022-11-14T09:56:27.093Z,100303.00
2022-11-14T09:58:56.794Z,100293.03
2022-11-14T10:01:42.368Z,100293.13
2022-11-14T10:04:17.413Z,100298.75
2022-11-14T10:07:02.337Z,100279.91
2022-11-14T10:09:44.474Z,100279.38
2022-11-14T10:12:32.309Z,100278.31
2022-11-14T10:15:32.600Z,100278.06
2022-11-14T10:18:29.518Z,100276.25
2022-11-14T10:21:30.701Z,100263.28
2022-11-14T10:24:15.933Z,100251.09
2022-11-14T10:27:01.359Z,100257.19
2022-11-14T10:29:39.213Z,100255.41
2022-11-14T10:32:24.831Z,100247.22
2022-11-14T10:35:20.841Z,100242.13
2022-11-14T10:38:00.481Z,100248.09
2022-11-14T10:40:45.706Z,100238.88
2022-11-14T10:43:27.776Z,100242.00
2022-11-14T10:46:11.160Z,100238.28
2022-11-14T10:48:45.035Z,100233.94
2022-11-14T10:51:22.955Z,100239.53
2022-11-14T10:54:01.875Z,100230.31
2022-11-14T10:56:31.325Z,100224.28
2022-11-14T10:59:09.144Z,100220.53
2022-11-14T11:01:59.063Z,100223.88
2022-11-14T11:04:29.326Z,100220.69
2022-11-14T11:07:36.254Z,100218.59
2022-11-14T11:10:41.253Z,100224.03
2022-11-14T11:13:28.017Z,100214.81
2022-11-14T11:15:59.397Z,100214.19
2022-11-14T11:18:32.067Z,100207.28
2022-11-14T11:21:15.881Z,100211.66
2022-11-14T11:23:54.911Z,100203.53
2022-11-14T11:26:25.669Z,100193.34
2022-11-14T11:29:12.214Z,100203.78
2022-11-14T11:31:58.204Z,100191.81
2022-11-14T11:34:31.650Z,100183.09
2022-11-14T11:37:23.377Z,100177.97
2022-11-14T11:39:55.407Z,100182.84
2022-11-14T11:45:39.043Z,100170.72
2022-11-14T11:48:15.375Z,100186.78
2022-11-14T11:50:43.434Z,100170.97
2022-11-14T11:53:30.359Z,100169.63
2022-11-14T11:56:07.462Z,100171.84
2022-11-14T11:58:45.957Z,100171.25
2022-11-14T12:01:13.932Z,100160.44
2022-11-14T12:03:46.903Z,100178.53
2022-11-14T12:06:27.628Z,100153.56
2022-11-14T12:09:18.510Z,100142.94
2022-11-14T12:11:53.627Z,100143.31
2022-11-14T12:14:48.345Z,100146.66
2022-11-14T12:17:23.529Z,100146.94
2022-11-14T12:20:13.524Z,100141.13
2022-11-14T12:23:20.851Z,100135.00
2022-11-14T12:26:09.181Z,100133.66
2022-11-14T12:29:01.785Z,100129.06
2022-11-14T12:31:34.653Z,100129.66
2022-11-14T12:34:20.916Z,100135.31
2022-11-14T12:36:50.371Z,100129.78
2022-11-14T12:39:35.052Z,100122.56
2022-11-14T12:42:08.077Z,100115.16
2022-11-14T12:44:40.075Z,100120.84
2022-11-14T12:47:08.176Z,100117.19
2022-11-14T12:49:53.532Z,100115.97
2022-11-14T12:52:45.253Z,100112.22
2022-11-14T12:55:27.788Z,100108.72
2022-11-14T12:58:10.549Z,100105.31
2022-11-14T13:00:50.809Z,100108.59
2022-11-14T13:03:48.729Z,100104.25
2022-11-14T13:06:42.926Z,100102.44
2022-11-14T13:09:53.486Z,100102.00
2022-11-14T13:12:52.072Z,100100.13
2022-11-14T13:16:06.252Z,100094.94
2022-11-14T13:22:15.851Z,100097.47
2022-11-14T13:25:02.035Z,100092.31
2022-11-14T13:28:05.371Z,100083.03
2022-11-14T13:31:02.761Z,100081.06
2022-11-14T13:33:51.477Z,100086.91
2022-11-14T13:36:45.326Z,100091.78
2022-11-14T13:39:31.179Z,100082.72
2022-11-14T13:42:18.049Z,100074.97
2022-11-14T13:44:48.286Z,100076.59
2022-11-14T13:47:56.006Z,100066.19
2022-11-14T13:50:37.076Z,100070.31
2022-11-14T13:53:15.582Z,100066.19
2022-11-14T13:56:07.353Z,100053.97
2022-11-14T13:59:06.843Z,100054.16
2022-11-14T14:01:41.082Z,100053.31
2022-11-14T14:04:45.440Z,100053.38
2022-11-14T14:07:36.462Z,100051.03
2022-11-14T14:10:34.370Z,100049.78
2022-11-14T14:13:43.743Z,100043.44
2022-11-14T14:16:15.684Z,100047.53
2022-11-14T14:19:15.219Z,100042.16
2022-11-14T14:22:22.255Z,100036.47
2022-11-14T14:25:35.418Z,100036.94
2022-11-14T14:28:23.367Z,100028.84
2022-11-14T14:31:09.038Z,100030.16
2022-11-14T14:33:48.016Z,100032.63
2022-11-14T14:36:25.976Z,100026.41
2022-11-14T14:39:22.577Z,100017.59
2022-11-14T14:42:02.332Z,100007.13
2022-11-14T14:44:49.010Z,100014.31
2022-11-14T14:47:43.948Z,100012.13
2022-11-14T14:51:06.172Z,100017.97
2022-11-14T14:53:35.779Z,100012.38
2022-11-14T14:56:19.242Z,100006.19
2022-11-14T14:58:51.384Z,100003.59
2022-11-14T15:01:36.119Z,100002.34
2022-11-14T15:04:07.503Z,100003.34
2022-11-14T15:06:40.003Z,99999.66
2022-11-14T15:09:20.196Z,99992.75
2022-11-14T15:12:03.079Z,99991.41
2022-11-14T15:14:36.096Z,100003.31
2022-11-14T15:17:05.589Z,99999.06
2022-11-14T15:19:41.336Z,99995.50
2022-11-14T15:22:20.236Z,99999.97
2022-11-14T15:25:06.772Z,99994.63
2022-11-14T15:28:01.021Z,100001.00
2022-11-14T15:30:31.528Z,99997.53
2022-11-14T15:33:05.024Z,99996.66
2022-11-14T15:35:37.783Z,99998.53
2022-11-14T15:38:42.718Z,99994.38
2022-11-14T15:41:34.736Z,99992.97
2022-11-14T15:44:05.635Z,99982.59
2022-11-14T15:46:41.208Z,99986.22
2022-11-14T15:49:15.509Z,99988.13
2022-11-14T15:52:03.707Z,99989.00
2022-11-14T15:54:33.360Z,99989.81
2022-11-14T15:57:06.539Z,99988.16
2022-11-14T15:59:35.061Z,99985.97
2022-11-14T16:02:32.344Z,99986.22
2022-11-14T16:05:01.219Z,99981.19
2022-11-14T16:07:30.360Z,99991.59
2022-11-14T16:09:58.468Z,99985.59
2022-11-14T16:12:33.329Z,99978.72
2022-11-14T16:15:00.325Z,99969.25
2022-11-14T16:17:27.375Z,99976.41
2022-11-14T16:20:07.107Z,99974.00
2022-11-14T16:22:41.327Z,99983.88
2022-11-14T16:25:22.865Z,99982.16
2022-11-14T16:27:54.450Z,99972.69
2022-11-14T16:30:26.241Z,99978.75
2022-11-14T16:32:53.352Z,99979.75
2022-11-14T16:35:26.305Z,99979.97
2022-11-14T16:37:55.941Z,99972.97
2022-11-14T16:40:27.276Z,99972.19
2022-11-14T16:42:55.918Z,99968.69
2022-11-14T16:45:24.551Z,99972.38
2022-11-14T16:47:51.819Z,99968.25
2022-11-14T16:50:21.969Z,99972.47
2022-11-14T16:52:49.505Z,99962.88
2022-11-14T16:55:23.607Z,99966.41
2022-11-14T16:57:51.836Z,99961.41
2022-11-14T17:00:19.020Z,99965.03
2022-11-14T17:03:00.232Z,99964.38
2022-11-14T17:05:29.390Z,99970.72
2022-11-14T17:08:01.289Z,99963.94
2022-11-14T17:10:30.367Z,99965.03
2022-11-14T17:12:57.410Z,99960.03
2022-11-14T17:15:24.398Z,99969.03
2022-11-14T17:17:51.508Z,99970.56
2022-11-14T17:20:25.264Z,99973.22
2022-11-14T17:22:53.517Z,99963.09
2022-11-14T17:25:23.664Z,99961.63
2022-11-14T17:27:51.620Z,99964.53
2022-11-14T17:30:29.222Z,99959.38
2022-11-14T17:32:59.413Z,99953.34
2022-11-14T17:35:32.418Z,99945.59
2022-11-14T17:38:00.450Z,99945.69
2022-11-14T17:40:28.196Z,99946.59
2022-11-14T17:42:55.676Z,99951.00
2022-11-14T17:45:25.557Z,99936.06
2022-11-14T17:47:53.802Z,99944.03
2022-11-14T17:50:22.122Z,99941.31
2022-11-14T17:52:56.037Z,99944.75
2022-11-14T17:55:39.886Z,99941.09
2022-11-14T17:58:32.376Z,99946.34
2022-11-14T18:01:32.067Z,99937.59
2022-11-14T18:04:06.188Z,99935.16
2022-11-14T18:06:34.897Z,99943.94
2022-11-14T18:09:15.367Z,99945.03
2022-11-14T18:11:44.832Z,99948.66
2022-11-14T18:14:18.183Z,99955.00
2022-11-14T18:17:12.394Z,99943.56
2022-11-14T18:19:40.622Z,99935.78
2022-11-14T18:22:10.003Z,99936.81
2022-11-14T18:24:37.309Z,99928.22
2022-11-14T18:27:06.511Z,99923.25
2022-11-14T18:29:39.925Z,99916.50
2022-11-14T18:32:08.293Z,99920.31
2022-11-14T18:34:39.327Z,99916.03
2022-11-14T18:37:07.307Z,99911.88
2022-11-14T18:39:35.847Z,99916.53
2022-11-14T18:42:03.123Z,99912.38
2022-11-14T18:44:30.825Z,99909.00
2022-11-14T18:46:58.279Z,99902.03
2022-11-14T18:49:26.857Z,99905.66
2022-11-14T18:51:56.397Z,99898.94
2022-11-14T18:54:24.537Z,99906.81
2022-11-14T18:56:52.896Z,99896.41
2022-11-14T18:59:20.331Z,99893.03
2022-11-14T19:01:47.520Z,99888.75
2022-11-14T19:04:17.858Z,99885.22
2022-11-14T19:06:46.923Z,99890.50
2022-11-14T19:09:21.663Z,99889.78
2022-11-14T19:12:08.433Z,99884.63
2022-11-14T19:14:38.115Z,99873.31
2022-11-14T19:17:07.712Z,99876.81
2022-11-14T19:19:35.192Z,99882.97
2022-11-14T19:22:02.797Z,99883.81
2022-11-14T19:24:32.864Z,99872.41
2022-11-14T19:27:01.849Z,99876.72
2022-11-14T19:29:30.259Z,99882.78
2022-11-14T19:31:57.798Z,99865.16
2022-11-14T19:34:26.656Z,99870.38
2022-11-14T19:37:00.416Z,99874.72
2022-11-14T19:39:29.998Z,99863.22
2022-11-14T19:42:03.189Z,99863.13
2022-11-14T19:44:40.789Z,99866.84
2022-11-14T19:47:08.679Z,99878.25
2022-11-14T19:49:35.835Z,99871.25
2022-11-14T19:52:03.181Z,99869.44
2022-11-14T19:54:31.394Z,99875.66
2022-11-14T19:56:59.900Z,99875.66
2022-11-14T19:59:30.915Z,99869.69
2022-11-14T20:01:58.262Z,99870.56
2022-11-14T20:04:28.338Z,99865.28
2022-11-14T20:06:57.795Z,99876.72
2022-11-14T20:09:27.240Z,99877.41
2022-11-14T20:11:54.959Z,99884.50
2022-11-14T20:14:25.263Z,99879.47
2022-11-14T20:16:53.668Z,99881.13
2022-11-14T20:19:22.102Z,99869.63
2022-11-14T20:21:51.500Z,99873.19
2022-11-14T20:24:22.315Z,99872.91
2022-11-14T20:26:54.186Z,99870.56
2022-11-14T20:29:22.832Z,99886.47
2022-11-14T20:31:50.454Z,99884.75
2022-11-14T20:34:17.797Z,99887.47
2022-11-14T20:37:09.760Z,99886.69
2022-11-14T20:39:34.600Z,99882.66
2022-11-14T20:42:08.917Z,99888.00
2022-11-14T20:44:37.247Z,99886.28
2022-11-14T20:47:11.175Z,99895.94
2022-11-14T20:49:39.324Z,99876.50
2022-11-14T20:52:08.475Z,99885.94
2022-11-14T20:54:36.155Z,99885.88
2022-11-14T20:57:05.700Z,99874.47
2022-11-14T20:59:33.577Z,99876.44
2022-11-14T21:02:04.840Z,99873.13
2022-11-14T21:04:32.067Z,99879.22
2022-11-14T21:07:00.550Z,99874.13
2022-11-14T21:09:32.007Z,99874.38
2022-11-14T21:11:59.561Z,99875.25
2022-11-14T21:14:26.649Z,99879.69
2022-11-14T21:16:53.905Z,99878.94
2022-11-14T21:19:23.033Z,99884.25
2022-11-14T21:21:52.157Z,99883.47
2022-11-14T21:24:19.477Z,99874.75
2022-11-14T21:26:48.779Z,99879.28
2022-11-14T21:29:45.261Z,99873.25
2022-11-14T21:32:14.353Z,99877.59
2022-11-14T21:34:56.162Z,99872.50
2022-11-14T21:37:23.399Z,99870.72
2022-11-14T21:39:51.633Z,99870.63
2022-11-14T21:42:24.651Z,99872.44
2022-11-14T21:44:58.316Z,99873.56
2022-11-14T21:47:35.345Z,99877.91
2022-11-14T21:50:02.526Z,99876.25
2022-11-14T21:52:38.306Z,99874.47
2022-11-14T21:55:06.901Z,99889.38
2022-11-14T21:57:33.957Z,99890.31
2022-11-14T22:00:07.481Z,99876.38
2022-11-14T22:02:56.913Z,99899.03
2022-11-14T22:05:25.930Z,99889.16
2022-11-14T22:08:09.417Z,99884.81
2022-11-14T22:10:43.555Z,99890.13
2022-11-14T22:13:11.641Z,99886.53
2022-11-14T22:15:38.705Z,99878.66
2022-11-14T22:18:05.748Z,99881.34
2022-11-14T22:20:33.878Z,99874.34
2022-11-14T22:23:02.018Z,99877.00
2022-11-14T22:25:29.057Z,99876.13
2022-11-14T22:28:03.321Z,99876.34
2022-11-14T22:30:30.513Z,99877.25
2022-11-14T22:33:00.684Z,99868.56
2022-11-14T22:35:27.722Z,99867.53
2022-11-14T22:37:57.893Z,99867.56
2022-11-14T22:40:31.240Z,99864.09
2022-11-14T22:43:05.470Z,99866.69
2022-11-14T22:45:38.624Z,99869.25
2022-11-14T22:48:05.908Z,99865.03
2022-11-14T22:50:34.026Z,99860.56
2022-11-14T22:53:02.109Z,99861.41
2022-11-14T22:55:30.185Z,99862.34
2022-11-14T22:57:59.072Z,99859.78
2022-11-14T23:00:26.193Z,99850.34
2022-11-14T23:02:57.213Z,99853.78
2022-11-14T23:05:24.278Z,99852.91
2022-11-14T23:07:51.300Z,99851.25
2022-11-14T23:10:22.383Z,99848.69
2022-11-14T23:12:52.388Z,99840.75
2022-11-14T23:15:19.396Z,99840.75
2022-11-14T23:17:47.114Z,99841.56
2022-11-14T23:20:19.389Z,99841.47
2022-11-14T23:22:46.892Z,99834.53
2022-11-14T23:25:17.124Z,99834.66
2022-11-14T23:27:51.342Z,99845.13
2022-11-14T23:30:19.391Z,99838.06
2022-11-14T23:32:47.492Z,99825.03
2022-11-14T23:35:14.535Z,99826.75
2022-11-14T23:37:41.501Z,99826.75
2022-11-14T23:48:06.902Z,99824.25
2022-11-14T23:50:36.048Z,99823.28
2022-11-14T23:53:07.404Z,99818.06
2022-11-14T23:55:36.596Z,99816.44
2022-11-14T23:58:04.759Z,99809.38
